sensor_id;sensor_type;location;lat;lon;timestamp;P1;durP1;ratioP1;P2;durP2;ratioP2
7074;SDS011;3578;51.568;6.932;2023-07-13T00:01:06;7.93;;;2.90;;
7074;SDS011;3578;51.568;6.932;2023-07-13T00:03:33;9.97;;;3.23;;
7074;SDS011;3578;51.568;6.932;2023-07-13T00:06:00;7.43;;;2.67;;
7074;SDS011;3578;51.568;6.932;2023-07-13T00:08:29;6.90;;;3.00;;
7074;SDS011;3578;51.568;6.932;2023-07-13T00:10:58;8.80;;;3.00;;
7074;SDS011;3578;51.568;6.932;2023-07-13T00:13:26;6.73;;;3.07;;
7074;SDS011;3578;51.568;6.932;2023-07-13T00:15:53;5.20;;;3.30;;
7074;SDS011;3578;51.568;6.932;2023-07-13T00:18:22;4.30;;;3.30;;
7074;SDS011;3578;51.568;6.932;2023-07-13T00:20:49;5.50;;;2.30;;
7074;SDS011;3578;51.568;6.932;2023-07-13T00:23:16;3.90;;;2.20;;
7074;SDS011;3578;51.568;6.932;2023-07-13T00:25:44;2.93;;;2.20;;
7074;SDS011;3578;51.568;6.932;2023-07-13T00:28:11;7.77;;;2.30;;
7074;SDS011;3578;51.568;6.932;2023-07-13T00:30:38;4.13;;;2.20;;
7074;SDS011;3578;51.568;6.932;2023-07-13T00:33:05;3.60;;;2.20;;
7074;SDS011;3578;51.568;6.932;2023-07-13T00:35:34;5.57;;;2.70;;
7074;SDS011;3578;51.568;6.932;2023-07-13T00:38:01;9.93;;;2.70;;
7074;SDS011;3578;51.568;6.932;2023-07-13T00:40:28;4.03;;;2.57;;
7074;SDS011;3578;51.568;6.932;2023-07-13T00:42:56;3.00;;;2.17;;
7074;SDS011;3578;51.568;6.932;2023-07-13T00:48:40;4.83;;;2.23;;
7074;SDS011;3578;51.568;6.932;2023-07-13T00:51:09;6.13;;;2.00;;
7074;SDS011;3578;51.568;6.932;2023-07-13T00:53:37;9.30;;;2.70;;
7074;SDS011;3578;51.568;6.932;2023-07-13T00:56:05;4.10;;;2.50;;
7074;SDS011;3578;51.568;6.932;2023-07-13T00:58:32;5.17;;;2.43;;
7074;SDS011;3578;51.568;6.932;2023-07-13T01:01:01;4.00;;;2.57;;
7074;SDS011;3578;51.568;6.932;2023-07-13T01:03:28;3.33;;;2.37;;
7074;SDS011;3578;51.568;6.932;2023-07-13T01:05:55;6.33;;;2.47;;
7074;SDS011;3578;51.568;6.932;2023-07-13T01:08:24;3.50;;;1.87;;
7074;SDS011;3578;51.568;6.932;2023-07-13T01:10:52;8.50;;;3.00;;
7074;SDS011;3578;51.568;6.932;2023-07-13T01:13:20;7.10;;;2.27;;
7074;SDS011;3578;51.568;6.932;2023-07-13T01:15:49;6.50;;;2.80;;
7074;SDS011;3578;51.568;6.932;2023-07-13T01:18:18;5.40;;;2.60;;
7074;SDS011;3578;51.568;6.932;2023-07-13T01:20:51;3.87;;;2.60;;
7074;SDS011;3578;51.568;6.932;2023-07-13T01:23:21;6.10;;;2.60;;
7074;SDS011;3578;51.568;6.932;2023-07-13T01:25:49;5.90;;;2.47;;
7074;SDS011;3578;51.568;6.932;2023-07-13T01:28:17;5.07;;;2.57;;
7074;SDS011;3578;51.568;6.932;2023-07-13T01:30:45;5.10;;;2.90;;
7074;SDS011;3578;51.568;6.932;2023-07-13T01:33:13;3.50;;;2.80;;
7074;SDS011;3578;51.568;6.932;2023-07-13T01:35:43;5.80;;;2.73;;
7074;SDS011;3578;51.568;6.932;2023-07-13T01:38:13;7.10;;;2.90;;
7074;SDS011;3578;51.568;6.932;2023-07-13T01:40:42;6.40;;;3.07;;
7074;SDS011;3578;51.568;6.932;2023-07-13T01:43:09;7.00;;;2.90;;
7074;SDS011;3578;51.568;6.932;2023-07-13T01:45:37;6.80;;;3.10;;
7074;SDS011;3578;51.568;6.932;2023-07-13T01:48:04;11.70;;;3.07;;
7074;SDS011;3578;51.568;6.932;2023-07-13T01:50:33;10.87;;;3.03;;
7074;SDS011;3578;51.568;6.932;2023-07-13T01:53:00;7.03;;;2.70;;
7074;SDS011;3578;51.568;6.932;2023-07-13T01:55:29;4.90;;;3.30;;
7074;SDS011;3578;51.568;6.932;2023-07-13T01:57:57;4.40;;;3.20;;
7074;SDS011;3578;51.568;6.932;2023-07-13T02:00:24;9.47;;;3.90;;
7074;SDS011;3578;51.568;6.932;2023-07-13T02:02:51;4.50;;;3.27;;
7074;SDS011;3578;51.568;6.932;2023-07-13T02:05:18;5.50;;;2.80;;
7074;SDS011;3578;51.568;6.932;2023-07-13T02:07:46;9.37;;;3.23;;
7074;SDS011;3578;51.568;6.932;2023-07-13T02:10:14;4.10;;;2.47;;
7074;SDS011;3578;51.568;6.932;2023-07-13T02:12:43;7.40;;;2.90;;
7074;SDS011;3578;51.568;6.932;2023-07-13T02:15:11;11.10;;;3.07;;
7074;SDS011;3578;51.568;6.932;2023-07-13T02:17:38;7.13;;;3.10;;
7074;SDS011;3578;51.568;6.932;2023-07-13T02:20:05;7.27;;;3.03;;
7074;SDS011;3578;51.568;6.932;2023-07-13T02:22:34;3.33;;;2.70;;
7074;SDS011;3578;51.568;6.932;2023-07-13T02:25:01;10.50;;;3.50;;
7074;SDS011;3578;51.568;6.932;2023-07-13T02:27:28;8.50;;;3.13;;
7074;SDS011;3578;51.568;6.932;2023-07-13T02:29:57;4.60;;;2.63;;
7074;SDS011;3578;51.568;6.932;2023-07-13T02:32:24;9.37;;;3.30;;
7074;SDS011;3578;51.568;6.932;2023-07-13T02:34:51;6.67;;;2.50;;
7074;SDS011;3578;51.568;6.932;2023-07-13T02:37:19;7.10;;;3.10;;
7074;SDS011;3578;51.568;6.932;2023-07-13T02:39:46;6.17;;;3.30;;
7074;SDS011;3578;51.568;6.932;2023-07-13T02:42:13;6.33;;;2.63;;
7074;SDS011;3578;51.568;6.932;2023-07-13T02:44:40;6.90;;;2.70;;
7074;SDS011;3578;51.568;6.932;2023-07-13T02:47:09;6.77;;;3.07;;
7074;SDS011;3578;51.568;6.932;2023-07-13T02:49:36;4.07;;;2.40;;
7074;SDS011;3578;51.568;6.932;2023-07-13T02:52:03;7.13;;;2.60;;
7074;SDS011;3578;51.568;6.932;2023-07-13T02:54:31;6.90;;;3.10;;
7074;SDS011;3578;51.568;6.932;2023-07-13T02:56:58;5.43;;;2.60;;
7074;SDS011;3578;51.568;6.932;2023-07-13T02:59:25;3.47;;;2.63;;
7074;SDS011;3578;51.568;6.932;2023-07-13T03:01:52;4.37;;;2.30;;
7074;SDS011;3578;51.568;6.932;2023-07-13T03:04:21;3.60;;;2.50;;
7074;SDS011;3578;51.568;6.932;2023-07-13T03:06:48;3.00;;;2.30;;
7074;SDS011;3578;51.568;6.932;2023-07-13T03:09:15;6.57;;;2.50;;
7074;SDS011;3578;51.568;6.932;2023-07-13T03:11:42;6.77;;;2.77;;
7074;SDS011;3578;51.568;6.932;2023-07-13T03:14:08;5.40;;;2.10;;
7074;SDS011;3578;51.568;6.932;2023-07-13T03:16:35;6.80;;;2.50;;
7074;SDS011;3578;51.568;6.932;2023-07-13T03:19:02;6.80;;;3.00;;
7074;SDS011;3578;51.568;6.932;2023-07-13T03:21:31;5.53;;;2.67;;
7074;SDS011;3578;51.568;6.932;2023-07-13T03:23:58;5.67;;;2.53;;
7074;SDS011;3578;51.568;6.932;2023-07-13T03:26:25;5.03;;;2.50;;
7074;SDS011;3578;51.568;6.932;2023-07-13T03:28:52;7.50;;;2.87;;
7074;SDS011;3578;51.568;6.932;2023-07-13T03:31:19;3.40;;;2.60;;
7074;SDS011;3578;51.568;6.932;2023-07-13T03:33:48;6.67;;;3.00;;
7074;SDS011;3578;51.568;6.932;2023-07-13T03:36:16;9.00;;;3.20;;
7074;SDS011;3578;51.568;6.932;2023-07-13T03:38:48;4.47;;;2.90;;
7074;SDS011;3578;51.568;6.932;2023-07-13T03:41:17;6.10;;;2.57;;
7074;SDS011;3578;51.568;6.932;2023-07-13T03:43:44;5.70;;;2.90;;
7074;SDS011;3578;51.568;6.932;2023-07-13T03:46:13;3.80;;;2.50;;
7074;SDS011;3578;51.568;6.932;2023-07-13T03:48:41;3.43;;;2.20;;
7074;SDS011;3578;51.568;6.932;2023-07-13T03:51:09;7.13;;;3.30;;
7074;SDS011;3578;51.568;6.932;2023-07-13T03:53:38;6.03;;;2.70;;
7074;SDS011;3578;51.568;6.932;2023-07-13T03:56:08;3.37;;;2.93;;
7074;SDS011;3578;51.568;6.932;2023-07-13T03:58:37;4.83;;;3.20;;
7074;SDS011;3578;51.568;6.932;2023-07-13T04:01:06;9.23;;;3.70;;
7074;SDS011;3578;51.568;6.932;2023-07-13T04:03:35;9.07;;;3.30;;
7074;SDS011;3578;51.568;6.932;2023-07-13T04:06:04;6.93;;;2.80;;
7074;SDS011;3578;51.568;6.932;2023-07-13T04:08:35;7.00;;;3.17;;
7074;SDS011;3578;51.568;6.932;2023-07-13T04:11:04;5.80;;;2.63;;
7074;SDS011;3578;51.568;6.932;2023-07-13T04:13:33;9.13;;;3.50;;
7074;SDS011;3578;51.568;6.932;2023-07-13T04:16:00;4.33;;;2.70;;
7074;SDS011;3578;51.568;6.932;2023-07-13T04:18:27;7.73;;;2.80;;
7074;SDS011;3578;51.568;6.932;2023-07-13T04:20:54;9.20;;;2.70;;
7074;SDS011;3578;51.568;6.932;2023-07-13T04:23:21;4.60;;;2.27;;
7074;SDS011;3578;51.568;6.932;2023-07-13T04:25:48;10.73;;;2.97;;
7074;SDS011;3578;51.568;6.932;2023-07-13T04:28:18;8.80;;;2.90;;
7074;SDS011;3578;51.568;6.932;2023-07-13T04:30:47;6.90;;;2.70;;
7074;SDS011;3578;51.568;6.932;2023-07-13T04:33:14;8.37;;;2.70;;
7074;SDS011;3578;51.568;6.932;2023-07-13T04:35:42;5.67;;;2.80;;
7074;SDS011;3578;51.568;6.932;2023-07-13T04:38:11;5.30;;;2.40;;
7074;SDS011;3578;51.568;6.932;2023-07-13T04:40:40;6.53;;;2.87;;
7074;SDS011;3578;51.568;6.932;2023-07-13T04:43:08;7.83;;;2.90;;
7074;SDS011;3578;51.568;6.932;2023-07-13T04:45:35;7.00;;;3.10;;
7074;SDS011;3578;51.568;6.932;2023-07-13T04:48:04;8.20;;;3.13;;
7074;SDS011;3578;51.568;6.932;2023-07-13T04:50:31;4.53;;;2.60;;
7074;SDS011;3578;51.568;6.932;2023-07-13T04:52:58;10.93;;;3.07;;
7074;SDS011;3578;51.568;6.932;2023-07-13T04:55:25;6.90;;;3.13;;
7074;SDS011;3578;51.568;6.932;2023-07-13T04:57:55;8.80;;;2.80;;
7074;SDS011;3578;51.568;6.932;2023-07-13T05:00:24;10.00;;;3.10;;
7074;SDS011;3578;51.568;6.932;2023-07-13T05:02:51;8.47;;;2.90;;
7074;SDS011;3578;51.568;6.932;2023-07-13T05:05:22;10.47;;;2.93;;
7074;SDS011;3578;51.568;6.932;2023-07-13T05:07:49;5.63;;;2.30;;
7074;SDS011;3578;51.568;6.932;2023-07-13T05:10:16;6.20;;;2.87;;
7074;SDS011;3578;51.568;6.932;2023-07-13T05:12:44;7.40;;;2.90;;
7074;SDS011;3578;51.568;6.932;2023-07-13T05:15:11;11.83;;;3.00;;
7074;SDS011;3578;51.568;6.932;2023-07-13T05:17:38;8.97;;;3.80;;
7074;SDS011;3578;51.568;6.932;2023-07-13T05:20:06;4.33;;;2.60;;
7074;SDS011;3578;51.568;6.932;2023-07-13T05:22:36;8.97;;;3.10;;
7074;SDS011;3578;51.568;6.932;2023-07-13T05:25:04;5.53;;;2.90;;
7074;SDS011;3578;51.568;6.932;2023-07-13T05:27:33;7.37;;;3.10;;
7074;SDS011;3578;51.568;6.932;2023-07-13T05:30:02;8.43;;;3.53;;
7074;SDS011;3578;51.568;6.932;2023-07-13T05:32:30;5.90;;;2.77;;
7074;SDS011;3578;51.568;6.932;2023-07-13T05:34:57;6.40;;;3.30;;
7074;SDS011;3578;51.568;6.932;2023-07-13T05:37:24;8.20;;;3.50;;
7074;SDS011;3578;51.568;6.932;2023-07-13T05:39:52;8.93;;;3.53;;
7074;SDS011;3578;51.568;6.932;2023-07-13T05:42:19;15.73;;;3.20;;
7074;SDS011;3578;51.568;6.932;2023-07-13T05:44:46;8.23;;;3.53;;
7074;SDS011;3578;51.568;6.932;2023-07-13T05:47:13;11.97;;;4.00;;
7074;SDS011;3578;51.568;6.932;2023-07-13T05:49:40;14.17;;;4.87;;
7074;SDS011;3578;51.568;6.932;2023-07-13T05:52:07;9.30;;;3.63;;
7074;SDS011;3578;51.568;6.932;2023-07-13T05:54:34;9.93;;;3.67;;
7074;SDS011;3578;51.568;6.932;2023-07-13T05:57:03;9.90;;;3.73;;
7074;SDS011;3578;51.568;6.932;2023-07-13T05:59:30;9.10;;;3.80;;
7074;SDS011;3578;51.568;6.932;2023-07-13T06:01:57;9.03;;;4.07;;
7074;SDS011;3578;51.568;6.932;2023-07-13T06:04:24;8.03;;;4.37;;
7074;SDS011;3578;51.568;6.932;2023-07-13T06:06:51;9.63;;;5.00;;
7074;SDS011;3578;51.568;6.932;2023-07-13T06:09:19;20.53;;;4.73;;
7074;SDS011;3578;51.568;6.932;2023-07-13T06:11:45;14.77;;;4.23;;
7074;SDS011;3578;51.568;6.932;2023-07-13T06:14:14;9.60;;;4.60;;
7074;SDS011;3578;51.568;6.932;2023-07-13T06:16:41;11.10;;;4.10;;
7074;SDS011;3578;51.568;6.932;2023-07-13T06:19:08;13.97;;;4.83;;
7074;SDS011;3578;51.568;6.932;2023-07-13T06:21:35;12.53;;;6.60;;
7074;SDS011;3578;51.568;6.932;2023-07-13T06:24:02;11.90;;;5.10;;
7074;SDS011;3578;51.568;6.932;2023-07-13T06:26:29;16.80;;;4.40;;
7074;SDS011;3578;51.568;6.932;2023-07-13T06:28:57;10.33;;;4.73;;
7074;SDS011;3578;51.568;6.932;2023-07-13T06:31:25;9.83;;;3.87;;
7074;SDS011;3578;51.568;6.932;2023-07-13T06:33:52;12.83;;;6.20;;
7074;SDS011;3578;51.568;6.932;2023-07-13T06:36:19;12.87;;;5.27;;
7074;SDS011;3578;51.568;6.932;2023-07-13T06:38:46;14.07;;;6.27;;
7074;SDS011;3578;51.568;6.932;2023-07-13T06:41:13;13.13;;;6.40;;
7074;SDS011;3578;51.568;6.932;2023-07-13T06:43:40;16.57;;;6.10;;
7074;SDS011;3578;51.568;6.932;2023-07-13T06:46:07;14.00;;;5.77;;
7074;SDS011;3578;51.568;6.932;2023-07-13T06:48:37;11.77;;;5.90;;
7074;SDS011;3578;51.568;6.932;2023-07-13T06:51:04;12.67;;;5.77;;
7074;SDS011;3578;51.568;6.932;2023-07-13T06:53:31;13.33;;;5.60;;
7074;SDS011;3578;51.568;6.932;2023-07-13T06:55:58;12.33;;;5.50;;
7074;SDS011;3578;51.568;6.932;2023-07-13T06:58:25;15.50;;;5.77;;
7074;SDS011;3578;51.568;6.932;2023-07-13T07:00:52;15.80;;;5.77;;
7074;SDS011;3578;51.568;6.932;2023-07-13T07:03:19;12.50;;;5.80;;
7074;SDS011;3578;51.568;6.932;2023-07-13T07:05:47;14.47;;;7.37;;
7074;SDS011;3578;51.568;6.932;2023-07-13T07:08:14;12.20;;;6.90;;
7074;SDS011;3578;51.568;6.932;2023-07-13T07:10:41;14.50;;;6.60;;
7074;SDS011;3578;51.568;6.932;2023-07-13T07:13:09;13.97;;;6.97;;
7074;SDS011;3578;51.568;6.932;2023-07-13T07:15:36;11.13;;;7.07;;
7074;SDS011;3578;51.568;6.932;2023-07-13T07:18:03;16.20;;;10.73;;
7074;SDS011;3578;51.568;6.932;2023-07-13T07:20:30;15.50;;;10.23;;
7074;SDS011;3578;51.568;6.932;2023-07-13T07:22:59;23.43;;;13.10;;
7074;SDS011;3578;51.568;6.932;2023-07-13T07:25:26;22.50;;;14.20;;
7074;SDS011;3578;51.568;6.932;2023-07-13T07:27:56;17.97;;;11.80;;
7074;SDS011;3578;51.568;6.932;2023-07-13T07:30:24;20.83;;;11.30;;
7074;SDS011;3578;51.568;6.932;2023-07-13T07:32:51;17.00;;;13.37;;
7074;SDS011;3578;51.568;6.932;2023-07-13T07:35:18;20.90;;;11.90;;
7074;SDS011;3578;51.568;6.932;2023-07-13T07:37:45;14.73;;;8.70;;
7074;SDS011;3578;51.568;6.932;2023-07-13T07:40:13;22.13;;;13.53;;
7074;SDS011;3578;51.568;6.932;2023-07-13T07:42:40;17.60;;;9.23;;
7074;SDS011;3578;51.568;6.932;2023-07-13T07:45:08;12.77;;;7.27;;
7074;SDS011;3578;51.568;6.932;2023-07-13T07:47:36;9.70;;;5.50;;
7074;SDS011;3578;51.568;6.932;2023-07-13T07:50:03;14.20;;;7.03;;
7074;SDS011;3578;51.568;6.932;2023-07-13T07:52:32;17.03;;;5.93;;
7074;SDS011;3578;51.568;6.932;2023-07-13T07:54:59;13.00;;;5.83;;
7074;SDS011;3578;51.568;6.932;2023-07-13T07:57:28;11.10;;;5.63;;
7074;SDS011;3578;51.568;6.932;2023-07-13T07:59:55;11.13;;;5.43;;
7074;SDS011;3578;51.568;6.932;2023-07-13T08:02:22;12.97;;;4.67;;
7074;SDS011;3578;51.568;6.932;2023-07-13T08:04:50;7.47;;;5.37;;
7074;SDS011;3578;51.568;6.932;2023-07-13T08:07:17;10.67;;;5.60;;
7074;SDS011;3578;51.568;6.932;2023-07-13T08:09:44;11.87;;;6.23;;
7074;SDS011;3578;51.568;6.932;2023-07-13T08:12:12;10.60;;;4.77;;
7074;SDS011;3578;51.568;6.932;2023-07-13T08:14:40;10.70;;;5.00;;
7074;SDS011;3578;51.568;6.932;2023-07-13T08:17:07;8.83;;;4.67;;
7074;SDS011;3578;51.568;6.932;2023-07-13T08:19:34;6.57;;;3.90;;
7074;SDS011;3578;51.568;6.932;2023-07-13T08:22:01;9.77;;;4.73;;
7074;SDS011;3578;51.568;6.932;2023-07-13T08:24:28;8.40;;;3.67;;
7074;SDS011;3578;51.568;6.932;2023-07-13T08:26:55;11.17;;;3.93;;
7074;SDS011;3578;51.568;6.932;2023-07-13T08:29:22;14.00;;;4.40;;
7074;SDS011;3578;51.568;6.932;2023-07-13T08:31:51;7.27;;;4.37;;
7074;SDS011;3578;51.568;6.932;2023-07-13T08:34:19;10.50;;;5.33;;
7074;SDS011;3578;51.568;6.932;2023-07-13T08:36:46;16.00;;;4.97;;
7074;SDS011;3578;51.568;6.932;2023-07-13T08:39:13;8.43;;;3.97;;
7074;SDS011;3578;51.568;6.932;2023-07-13T08:41:39;7.33;;;4.03;;
7074;SDS011;3578;51.568;6.932;2023-07-13T08:44:07;11.40;;;3.80;;
7074;SDS011;3578;51.568;6.932;2023-07-13T08:46:45;5.63;;;4.30;;
7074;SDS011;3578;51.568;6.932;2023-07-13T08:49:15;9.13;;;4.03;;
7074;SDS011;3578;51.568;6.932;2023-07-13T08:51:50;8.37;;;4.00;;
7074;SDS011;3578;51.568;6.932;2023-07-13T08:54:26;7.80;;;4.30;;
7074;SDS011;3578;51.568;6.932;2023-07-13T08:56:58;12.23;;;4.43;;
7074;SDS011;3578;51.568;6.932;2023-07-13T08:59:28;5.57;;;4.13;;
7074;SDS011;3578;51.568;6.932;2023-07-13T09:02:14;6.00;;;3.40;;
7074;SDS011;3578;51.568;6.932;2023-07-13T09:04:53;10.70;;;4.47;;
7074;SDS011;3578;51.568;6.932;2023-07-13T09:07:27;10.33;;;5.00;;
7074;SDS011;3578;51.568;6.932;2023-07-13T09:10:09;9.30;;;4.30;;
7074;SDS011;3578;51.568;6.932;2023-07-13T09:12:45;8.50;;;4.30;;
7074;SDS011;3578;51.568;6.932;2023-07-13T09:15:27;6.10;;;4.07;;
7074;SDS011;3578;51.568;6.932;2023-07-13T09:17:59;12.03;;;4.30;;
7074;SDS011;3578;51.568;6.932;2023-07-13T09:20:37;9.00;;;4.27;;
7074;SDS011;3578;51.568;6.932;2023-07-13T09:23:11;15.13;;;5.07;;
7074;SDS011;3578;51.568;6.932;2023-07-13T09:25:44;6.47;;;4.07;;
7074;SDS011;3578;51.568;6.932;2023-07-13T09:28:16;7.60;;;4.17;;
7074;SDS011;3578;51.568;6.932;2023-07-13T09:30:49;18.93;;;5.40;;
7074;SDS011;3578;51.568;6.932;2023-07-13T09:33:22;5.63;;;3.73;;
7074;SDS011;3578;51.568;6.932;2023-07-13T09:35:51;8.10;;;4.00;;
7074;SDS011;3578;51.568;6.932;2023-07-13T09:38:18;6.43;;;4.10;;
7074;SDS011;3578;51.568;6.932;2023-07-13T09:46:35;6.60;;;3.93;;
7074;SDS011;3578;51.568;6.932;2023-07-13T09:49:02;6.70;;;4.30;;
7074;SDS011;3578;51.568;6.932;2023-07-13T09:51:30;7.60;;;4.03;;
7074;SDS011;3578;51.568;6.932;2023-07-13T09:53:57;10.50;;;3.53;;
7074;SDS011;3578;51.568;6.932;2023-07-13T09:56:26;7.53;;;3.60;;
7074;SDS011;3578;51.568;6.932;2023-07-13T09:58:55;8.83;;;3.80;;
7074;SDS011;3578;51.568;6.932;2023-07-13T10:01:33;10.80;;;4.63;;
7074;SDS011;3578;51.568;6.932;2023-07-13T10:04:03;7.97;;;4.03;;
7074;SDS011;3578;51.568;6.932;2023-07-13T10:06:40;5.57;;;3.67;;
7074;SDS011;3578;51.568;6.932;2023-07-13T10:09:08;8.60;;;3.83;;
7074;SDS011;3578;51.568;6.932;2023-07-13T10:11:36;10.50;;;3.83;;
7074;SDS011;3578;51.568;6.932;2023-07-13T10:14:09;9.27;;;3.70;;
7074;SDS011;3578;51.568;6.932;2023-07-13T10:16:41;10.10;;;4.87;;
7074;SDS011;3578;51.568;6.932;2023-07-13T10:19:11;7.80;;;3.73;;
7074;SDS011;3578;51.568;6.932;2023-07-13T10:21:50;9.50;;;4.37;;
7074;SDS011;3578;51.568;6.932;2023-07-13T10:24:21;7.87;;;3.93;;
7074;SDS011;3578;51.568;6.932;2023-07-13T10:26:52;6.53;;;3.87;;
7074;SDS011;3578;51.568;6.932;2023-07-13T10:29:24;8.53;;;3.60;;
7074;SDS011;3578;51.568;6.932;2023-07-13T10:31:55;8.10;;;3.90;;
7074;SDS011;3578;51.568;6.932;2023-07-13T10:34:23;15.23;;;3.23;;
7074;SDS011;3578;51.568;6.932;2023-07-13T10:36:52;7.43;;;3.57;;
7074;SDS011;3578;51.568;6.932;2023-07-13T10:39:20;9.13;;;3.37;;
7074;SDS011;3578;51.568;6.932;2023-07-13T10:41:50;8.57;;;2.93;;
7074;SDS011;3578;51.568;6.932;2023-07-13T10:44:22;8.37;;;4.00;;
7074;SDS011;3578;51.568;6.932;2023-07-13T10:46:57;5.53;;;2.73;;
7074;SDS011;3578;51.568;6.932;2023-07-13T10:49:28;5.50;;;2.67;;
7074;SDS011;3578;51.568;6.932;2023-07-13T10:51:58;5.33;;;2.80;;
7074;SDS011;3578;51.568;6.932;2023-07-13T10:54:27;9.87;;;3.60;;
7074;SDS011;3578;51.568;6.932;2023-07-13T10:57:08;7.00;;;3.20;;
7074;SDS011;3578;51.568;6.932;2023-07-13T10:59:43;5.73;;;2.90;;
7074;SDS011;3578;51.568;6.932;2023-07-13T11:02:15;5.47;;;2.90;;
7074;SDS011;3578;51.568;6.932;2023-07-13T11:04:52;12.63;;;3.13;;
7074;SDS011;3578;51.568;6.932;2023-07-13T11:07:24;8.17;;;2.83;;
7074;SDS011;3578;51.568;6.932;2023-07-13T11:09:54;5.83;;;2.63;;
7074;SDS011;3578;51.568;6.932;2023-07-13T11:12:28;10.50;;;3.40;;
7074;SDS011;3578;51.568;6.932;2023-07-13T11:15:27;9.50;;;3.10;;
7074;SDS011;3578;51.568;6.932;2023-07-13T11:18:19;5.10;;;2.83;;
7074;SDS011;3578;51.568;6.932;2023-07-13T11:20:50;9.13;;;3.27;;
7074;SDS011;3578;51.568;6.932;2023-07-13T11:23:20;5.43;;;2.30;;
7074;SDS011;3578;51.568;6.932;2023-07-13T11:25:57;6.57;;;2.63;;
7074;SDS011;3578;51.568;6.932;2023-07-13T11:28:26;7.67;;;2.90;;
7074;SDS011;3578;51.568;6.932;2023-07-13T11:31:02;4.63;;;2.20;;
7074;SDS011;3578;51.568;6.932;2023-07-13T11:36:29;10.00;;;2.90;;
7074;SDS011;3578;51.568;6.932;2023-07-13T11:39:05;7.73;;;2.30;;
7074;SDS011;3578;51.568;6.932;2023-07-13T11:41:48;9.90;;;2.60;;
7074;SDS011;3578;51.568;6.932;2023-07-13T11:44:21;9.73;;;3.00;;
7074;SDS011;3578;51.568;6.932;2023-07-13T11:46:51;4.70;;;2.40;;
7074;SDS011;3578;51.568;6.932;2023-07-13T11:49:20;2.60;;;2.40;;
7074;SDS011;3578;51.568;6.932;2023-07-13T11:51:49;5.70;;;2.43;;
7074;SDS011;3578;51.568;6.932;2023-07-13T11:54:24;5.20;;;2.27;;
7074;SDS011;3578;51.568;6.932;2023-07-13T11:56:54;9.77;;;2.60;;
7074;SDS011;3578;51.568;6.932;2023-07-13T11:59:25;4.20;;;2.30;;
7074;SDS011;3578;51.568;6.932;2023-07-13T12:01:53;6.30;;;2.23;;
7074;SDS011;3578;51.568;6.932;2023-07-13T12:04:25;5.37;;;2.77;;
7074;SDS011;3578;51.568;6.932;2023-07-13T12:06:56;4.93;;;2.40;;
7074;SDS011;3578;51.568;6.932;2023-07-13T12:09:30;6.40;;;3.20;;
7074;SDS011;3578;51.568;6.932;2023-07-13T12:12:01;3.87;;;2.20;;
7074;SDS011;3578;51.568;6.932;2023-07-13T12:14:29;4.70;;;2.43;;
7074;SDS011;3578;51.568;6.932;2023-07-13T12:17:00;4.03;;;1.83;;
7074;SDS011;3578;51.568;6.932;2023-07-13T12:19:27;6.43;;;2.53;;
7074;SDS011;3578;51.568;6.932;2023-07-13T12:21:55;7.00;;;2.50;;
7074;SDS011;3578;51.568;6.932;2023-07-13T12:24:24;4.63;;;2.43;;
7074;SDS011;3578;51.568;6.932;2023-07-13T12:26:55;4.60;;;2.43;;
7074;SDS011;3578;51.568;6.932;2023-07-13T12:29:27;5.00;;;2.20;;
7074;SDS011;3578;51.568;6.932;2023-07-13T12:31:54;5.83;;;2.20;;
7074;SDS011;3578;51.568;6.932;2023-07-13T12:34:22;4.97;;;2.03;;
7074;SDS011;3578;51.568;6.932;2023-07-13T12:36:51;2.90;;;1.77;;
7074;SDS011;3578;51.568;6.932;2023-07-13T12:39:21;3.07;;;2.30;;
7074;SDS011;3578;51.568;6.932;2023-07-13T12:42:09;4.47;;;2.43;;
7074;SDS011;3578;51.568;6.932;2023-07-13T12:44:46;3.00;;;2.60;;
7074;SDS011;3578;51.568;6.932;2023-07-13T12:47:15;5.53;;;2.30;;
7074;SDS011;3578;51.568;6.932;2023-07-13T12:49:47;5.50;;;2.40;;
7074;SDS011;3578;51.568;6.932;2023-07-13T12:52:17;3.10;;;1.93;;
7074;SDS011;3578;51.568;6.932;2023-07-13T12:54:54;3.93;;;1.80;;
7074;SDS011;3578;51.568;6.932;2023-07-13T12:57:24;3.53;;;2.00;;
7074;SDS011;3578;51.568;6.932;2023-07-13T12:59:52;7.73;;;2.70;;
7074;SDS011;3578;51.568;6.932;2023-07-13T13:02:26;7.67;;;2.70;;
7074;SDS011;3578;51.568;6.932;2023-07-13T13:04:56;9.97;;;2.67;;
7074;SDS011;3578;51.568;6.932;2023-07-13T13:07:24;4.97;;;2.40;;
7074;SDS011;3578;51.568;6.932;2023-07-13T13:09:52;2.60;;;2.40;;
7074;SDS011;3578;51.568;6.932;2023-07-13T13:12:19;7.87;;;3.30;;
7074;SDS011;3578;51.568;6.932;2023-07-13T13:14:48;5.87;;;3.00;;
7074;SDS011;3578;51.568;6.932;2023-07-13T13:17:18;5.87;;;3.67;;
7074;SDS011;3578;51.568;6.932;2023-07-13T13:19:49;5.80;;;3.13;;
7074;SDS011;3578;51.568;6.932;2023-07-13T13:22:18;6.00;;;3.50;;
7074;SDS011;3578;51.568;6.932;2023-07-13T13:24:45;7.93;;;3.90;;
7074;SDS011;3578;51.568;6.932;2023-07-13T13:27:14;8.37;;;3.80;;
7074;SDS011;3578;51.568;6.932;2023-07-13T13:29:43;7.10;;;4.07;;
7074;SDS011;3578;51.568;6.932;2023-07-13T13:32:13;9.63;;;4.37;;
7074;SDS011;3578;51.568;6.932;2023-07-13T13:34:41;4.33;;;3.93;;
7074;SDS011;3578;51.568;6.932;2023-07-13T13:37:16;5.70;;;3.97;;
7074;SDS011;3578;51.568;6.932;2023-07-13T13:39:46;8.93;;;3.47;;
7074;SDS011;3578;51.568;6.932;2023-07-13T13:42:13;4.63;;;3.13;;
7074;SDS011;3578;51.568;6.932;2023-07-13T13:44:41;6.80;;;4.00;;
7074;SDS011;3578;51.568;6.932;2023-07-13T13:47:16;4.33;;;3.30;;
7074;SDS011;3578;51.568;6.932;2023-07-13T13:49:54;5.17;;;3.70;;
7074;SDS011;3578;51.568;6.932;2023-07-13T13:52:21;9.10;;;3.80;;
7074;SDS011;3578;51.568;6.932;2023-07-13T13:54:48;4.07;;;3.67;;
7074;SDS011;3578;51.568;6.932;2023-07-13T13:57:15;5.10;;;4.27;;
7074;SDS011;3578;51.568;6.932;2023-07-13T13:59:41;5.57;;;3.97;;
7074;SDS011;3578;51.568;6.932;2023-07-13T14:02:20;8.10;;;4.47;;
7074;SDS011;3578;51.568;6.932;2023-07-13T14:04:51;5.60;;;3.97;;
7074;SDS011;3578;51.568;6.932;2023-07-13T14:07:22;5.20;;;4.60;;
7074;SDS011;3578;51.568;6.932;2023-07-13T14:09:49;5.93;;;4.83;;
7074;SDS011;3578;51.568;6.932;2023-07-13T14:12:18;5.63;;;4.80;;
7074;SDS011;3578;51.568;6.932;2023-07-13T14:14:45;5.60;;;4.80;;
7074;SDS011;3578;51.568;6.932;2023-07-13T14:17:17;5.53;;;4.63;;
7074;SDS011;3578;51.568;6.932;2023-07-13T14:19:47;5.97;;;4.77;;
7074;SDS011;3578;51.568;6.932;2023-07-13T14:22:21;7.07;;;4.40;;
7074;SDS011;3578;51.568;6.932;2023-07-13T14:24:49;6.50;;;4.40;;
7074;SDS011;3578;51.568;6.932;2023-07-13T14:27:18;4.90;;;4.17;;
7074;SDS011;3578;51.568;6.932;2023-07-13T14:29:45;7.00;;;5.17;;
7074;SDS011;3578;51.568;6.932;2023-07-13T14:32:12;6.37;;;4.60;;
7074;SDS011;3578;51.568;6.932;2023-07-13T14:34:40;5.43;;;4.93;;
7074;SDS011;3578;51.568;6.932;2023-07-13T14:37:11;4.80;;;4.40;;
7074;SDS011;3578;51.568;6.932;2023-07-13T14:39:39;5.03;;;4.53;;
7074;SDS011;3578;51.568;6.932;2023-07-13T14:42:08;5.20;;;3.77;;
7074;SDS011;3578;51.568;6.932;2023-07-13T14:44:37;4.40;;;3.87;;
7074;SDS011;3578;51.568;6.932;2023-07-13T14:47:05;4.57;;;3.17;;
7074;SDS011;3578;51.568;6.932;2023-07-13T14:49:34;4.90;;;3.87;;
7074;SDS011;3578;51.568;6.932;2023-07-13T14:52:10;5.53;;;3.80;;
7074;SDS011;3578;51.568;6.932;2023-07-13T14:54:41;5.40;;;3.43;;
7074;SDS011;3578;51.568;6.932;2023-07-13T14:57:09;4.50;;;2.67;;
7074;SDS011;3578;51.568;6.932;2023-07-13T14:59:37;4.33;;;3.27;;
7074;SDS011;3578;51.568;6.932;2023-07-13T15:02:12;3.30;;;3.00;;
7074;SDS011;3578;51.568;6.932;2023-07-13T15:04:45;4.13;;;2.83;;
7074;SDS011;3578;51.568;6.932;2023-07-13T15:07:13;3.50;;;2.63;;
7074;SDS011;3578;51.568;6.932;2023-07-13T15:09:43;4.43;;;3.00;;
7074;SDS011;3578;51.568;6.932;2023-07-13T15:12:10;5.60;;;2.77;;
7074;SDS011;3578;51.568;6.932;2023-07-13T15:14:37;7.60;;;2.60;;
7074;SDS011;3578;51.568;6.932;2023-07-13T15:17:04;6.20;;;2.60;;
7074;SDS011;3578;51.568;6.932;2023-07-13T15:19:33;5.90;;;3.03;;
7074;SDS011;3578;51.568;6.932;2023-07-13T15:22:01;5.80;;;3.33;;
7074;SDS011;3578;51.568;6.932;2023-07-13T15:24:29;3.70;;;3.40;;
7074;SDS011;3578;51.568;6.932;2023-07-13T15:26:56;7.50;;;2.90;;
7074;SDS011;3578;51.568;6.932;2023-07-13T15:29:23;5.00;;;2.90;;
7074;SDS011;3578;51.568;6.932;2023-07-13T15:31:50;5.60;;;3.10;;
7074;SDS011;3578;51.568;6.932;2023-07-13T15:34:18;4.40;;;3.37;;
7074;SDS011;3578;51.568;6.932;2023-07-13T15:36:51;7.30;;;3.50;;